Adams, North Dakota
Current Conditions -  °F | °C
As of 12:35 PM on Wednesday 26 Nov 2014 (Local Time) from KD55 Reporting Station
Clear Clear  
Wind Chill: -28°   Ceiling: Unl
Heat Index: -18°   Visibility: 10mi
Dew Point: -22°   Wind: 12mph
Humidity: 72%   Direction: 350°N
Pressure: 30.38"   Gusts: NA
Location:  48.42°N, 98.08°W
Report Text: KD55 261835Z AUTO 35010KT 10SM CLR M18/M22 A3038 RMK AO2
Loading
Personal Weather Stations






























Interactive Weather Map New forecast layout! Learn more

10-Day Weather Forecast

Advertisements
Track Severe Weather on mobile